createdAt,value
2017-01-22T00:00:28.140Z,0
2017-01-22T00:01:38.451Z,0
2017-01-22T00:02:48.730Z,0
2017-01-22T00:03:58.630Z,0
2017-01-22T00:05:08.909Z,0
2017-01-22T00:06:19.229Z,0
2017-01-22T00:07:29.218Z,0
2017-01-22T00:08:39.548Z,0
2017-01-22T00:09:49.479Z,0
2017-01-22T00:10:58.967Z,0
2017-01-22T00:12:09.369Z,0
2017-01-22T00:13:19.238Z,0
2017-01-22T00:14:29.533Z,0
2017-01-22T00:15:39.805Z,0
2017-01-22T00:16:50.077Z,0
2017-01-22T00:18:00.360Z,0
2017-01-22T00:19:10.647Z,0
2017-01-22T00:20:20.926Z,0
2017-01-22T00:21:30.790Z,0
2017-01-22T00:22:40.648Z,0
2017-01-22T00:23:50.920Z,0
2017-01-22T00:25:01.237Z,0
2017-01-22T00:26:11.097Z,0
2017-01-22T00:27:21.415Z,0
2017-01-22T00:28:31.690Z,0
2017-01-22T00:29:42.046Z,0
2017-01-22T00:30:51.919Z,0
2017-01-22T00:32:02.365Z,0
2017-01-22T00:33:11.867Z,0
2017-01-22T00:34:22.193Z,0
2017-01-22T00:35:32.490Z,0
2017-01-22T00:36:42.813Z,0
2017-01-22T00:37:53.070Z,0
2017-01-22T00:39:02.949Z,0
2017-01-22T00:40:12.825Z,0
2017-01-22T00:41:23.134Z,0
2017-01-22T00:42:33.434Z,0
2017-01-22T00:43:43.315Z,0
2017-01-22T00:44:53.600Z,0
2017-01-22T00:46:03.469Z,0
2017-01-22T00:47:12.943Z,0
2017-01-22T00:48:22.838Z,0
2017-01-22T00:49:32.712Z,0
2017-01-22T00:50:43.005Z,0
2017-01-22T00:51:53.299Z,0
2017-01-22T00:53:03.581Z,0
2017-01-22T00:54:14.094Z,0
2017-01-22T00:55:23.979Z,0
2017-01-22T00:56:34.254Z,0
2017-01-22T00:57:44.116Z,0
2017-01-22T00:58:54.527Z,0
2017-01-22T01:00:04.382Z,0
2017-01-22T01:01:14.686Z,0
2017-01-22T01:02:24.985Z,0
2017-01-22T01:03:35.255Z,0
2017-01-22T01:04:45.522Z,0
2017-01-22T01:05:55.847Z,0
2017-01-22T01:07:06.123Z,0
2017-01-22T01:08:16.396Z,0
2017-01-22T01:09:26.671Z,0
2017-01-22T01:10:36.145Z,0
2017-01-22T01:11:46.413Z,0
2017-01-22T01:12:56.743Z,0
2017-01-22T01:14:07.056Z,0
2017-01-22T01:15:17.329Z,0
2017-01-22T01:16:27.703Z,0
2017-01-22T01:17:37.975Z,0
2017-01-22T01:18:48.292Z,0
2017-01-22T01:19:58.600Z,0
2017-01-22T01:21:08.865Z,0
2017-01-22T01:22:19.143Z,0
2017-01-22T01:23:29.028Z,0
2017-01-22T01:24:38.928Z,0
2017-01-22T01:25:49.245Z,0
2017-01-22T01:26:59.578Z,0
2017-01-22T01:28:09.439Z,0
2017-01-22T01:29:19.281Z,0
2017-01-22T01:30:29.565Z,0
2017-01-22T01:31:39.926Z,0
2017-01-22T01:32:50.240Z,0
2017-01-22T01:34:00.489Z,0
2017-01-22T01:35:10.730Z,0
2017-01-22T01:36:20.999Z,0
2017-01-22T01:37:31.279Z,0
2017-01-22T01:38:41.127Z,0
2017-01-22T01:39:51.413Z,0
2017-01-22T01:41:01.796Z,0
2017-01-22T01:42:12.142Z,0
2017-01-22T01:43:22.479Z,0
2017-01-22T01:44:32.344Z,0
2017-01-22T01:45:42.584Z,0
2017-01-22T01:46:52.999Z,0
2017-01-22T01:48:03.265Z,0
2017-01-22T01:49:13.189Z,0
2017-01-22T01:50:23.463Z,0
2017-01-22T01:51:33.323Z,0
2017-01-22T01:52:43.192Z,0
2017-01-22T01:53:53.054Z,0
2017-01-22T01:55:03.310Z,0
2017-01-22T01:56:13.565Z,0
2017-01-22T01:57:23.846Z,0
2017-01-22T01:58:33.686Z,0
2017-01-22T01:59:43.940Z,0
2017-01-22T02:00:53.930Z,0
2017-01-22T02:02:03.400Z,0
2017-01-22T02:03:13.289Z,0
2017-01-22T02:04:23.561Z,0
2017-01-22T02:05:33.459Z,0
2017-01-22T02:06:43.750Z,0
2017-01-22T02:07:54.003Z,0
2017-01-22T02:09:04.337Z,0
2017-01-22T02:10:14.228Z,0
2017-01-22T02:11:24.472Z,0
2017-01-22T02:12:34.808Z,0
2017-01-22T02:13:45.062Z,0
2017-01-22T02:14:55.383Z,0
2017-01-22T02:16:05.659Z,0
2017-01-22T02:17:15.924Z,0
2017-01-22T02:18:25.756Z,0
2017-01-22T02:19:35.608Z,0
2017-01-22T02:20:45.870Z,0
2017-01-22T02:21:55.456Z,0
2017-01-22T02:23:05.367Z,0
2017-01-22T02:24:15.211Z,0
2017-01-22T02:25:25.059Z,0
2017-01-22T02:26:35.354Z,0
2017-01-22T02:27:45.627Z,0
2017-01-22T02:28:55.520Z,0
2017-01-22T02:30:05.782Z,0
2017-01-22T02:31:15.637Z,0
2017-01-22T02:32:25.961Z,0
2017-01-22T02:33:35.834Z,0
2017-01-22T02:34:46.203Z,0
2017-01-22T02:35:56.058Z,0
2017-01-22T02:37:06.299Z,0
2017-01-22T02:38:16.696Z,0
2017-01-22T02:39:26.947Z,0
2017-01-22T02:40:37.207Z,0
2017-01-22T02:41:47.440Z,0
2017-01-22T02:42:57.701Z,0
2017-01-22T02:44:07.988Z,0
2017-01-22T02:45:18.259Z,0
2017-01-22T02:46:28.528Z,0
2017-01-22T02:47:38.792Z,0
2017-01-22T02:48:48.643Z,0
2017-01-22T02:49:58.658Z,0
2017-01-22T02:51:08.970Z,0
2017-01-22T02:52:18.895Z,0
2017-01-22T02:53:29.155Z,0
2017-01-22T02:54:39.414Z,0
2017-01-22T02:55:49.643Z,0
2017-01-22T02:56:59.901Z,0
2017-01-22T02:58:10.183Z,0
2017-01-22T02:59:20.448Z,0
2017-01-22T03:00:30.691Z,0
2017-01-22T03:01:40.937Z,0
2017-01-22T03:02:51.281Z,0
2017-01-22T03:04:01.128Z,0
2017-01-22T03:05:10.999Z,0
2017-01-22T03:06:21.312Z,0
2017-01-22T03:07:31.663Z,0
2017-01-22T03:08:41.913Z,0
2017-01-22T03:09:52.205Z,0
2017-01-22T03:11:02.446Z,0
2017-01-22T03:12:12.378Z,0
2017-01-22T03:13:22.648Z,0
2017-01-22T03:14:31.298Z,0
2017-01-22T03:15:41.560Z,0
2017-01-22T03:16:51.428Z,0
2017-01-22T03:18:01.280Z,0
2017-01-22T03:19:11.608Z,0
2017-01-22T03:20:21.543Z,0
2017-01-22T03:21:31.815Z,0
2017-01-22T03:22:42.314Z,0
2017-01-22T03:23:52.573Z,0
2017-01-22T03:25:02.886Z,0
2017-01-22T03:26:12.750Z,0
2017-01-22T03:27:23.013Z,0
2017-01-22T03:28:33.251Z,0
2017-01-22T03:29:43.094Z,0
2017-01-22T03:30:53.375Z,0
2017-01-22T03:32:03.624Z,0
2017-01-22T03:33:13.485Z,0
2017-01-22T03:34:23.326Z,0
2017-01-22T03:35:33.168Z,0
2017-01-22T03:36:43.069Z,0
2017-01-22T03:37:52.512Z,0
2017-01-22T03:39:02.794Z,0
2017-01-22T03:40:13.053Z,0
2017-01-22T03:41:23.326Z,0
2017-01-22T03:42:33.549Z,0
2017-01-22T03:43:43.820Z,0
2017-01-22T03:44:53.682Z,0
2017-01-22T03:46:03.912Z,0
2017-01-22T03:47:13.780Z,0
2017-01-22T03:48:24.090Z,0
2017-01-22T03:49:34.479Z,0
2017-01-22T03:50:44.336Z,0
2017-01-22T03:51:54.640Z,0
2017-01-22T03:53:04.591Z,0
2017-01-22T03:54:14.097Z,0
2017-01-22T03:55:23.985Z,0
2017-01-22T03:56:33.833Z,0
2017-01-22T03:57:44.110Z,0
2017-01-22T03:58:54.384Z,0
2017-01-22T04:00:04.240Z,0
2017-01-22T04:01:14.583Z,0
2017-01-22T04:02:24.911Z,0
2017-01-22T04:03:34.784Z,0
2017-01-22T04:04:45.076Z,0
2017-01-22T04:05:55.318Z,0
2017-01-22T04:07:05.592Z,0
2017-01-22T04:08:15.929Z,0
2017-01-22T04:09:26.187Z,0
2017-01-22T04:10:36.020Z,0
2017-01-22T04:11:45.875Z,0
2017-01-22T04:12:56.108Z,0
2017-01-22T04:14:06.431Z,0
2017-01-22T04:15:16.333Z,0
2017-01-22T04:16:26.569Z,0
2017-01-22T04:17:36.455Z,0
2017-01-22T04:18:46.300Z,0
2017-01-22T04:19:56.646Z,0
2017-01-22T04:21:06.946Z,0
2017-01-22T04:22:16.411Z,0
2017-01-22T04:23:26.661Z,0
2017-01-22T04:24:36.501Z,0
2017-01-22T04:25:46.767Z,0
2017-01-22T04:26:56.672Z,0
2017-01-22T04:28:06.549Z,0
2017-01-22T04:29:16.793Z,0
2017-01-22T04:30:27.071Z,0
2017-01-22T04:31:37.386Z,0
2017-01-22T04:32:47.660Z,0
2017-01-22T04:33:57.545Z,0
2017-01-22T04:35:07.524Z,0
2017-01-22T04:36:17.815Z,0
2017-01-22T04:37:28.124Z,0
2017-01-22T04:38:38.024Z,0
2017-01-22T04:39:48.300Z,0
2017-01-22T04:40:58.592Z,0
2017-01-22T04:42:08.848Z,0
2017-01-22T04:43:18.299Z,0
2017-01-22T04:44:28.157Z,0
2017-01-22T04:45:38.403Z,0
2017-01-22T04:46:48.656Z,0
2017-01-22T04:47:58.953Z,0
2017-01-22T04:49:09.279Z,0
2017-01-22T04:50:19.828Z,0
2017-01-22T04:51:30.254Z,0
2017-01-22T04:52:40.565Z,0
2017-01-22T04:53:50.818Z,0
2017-01-22T04:55:01.072Z,0
2017-01-22T04:56:11.354Z,0
2017-01-22T04:57:21.630Z,0
2017-01-22T04:58:31.861Z,0
2017-01-22T04:59:41.854Z,0
2017-01-22T05:00:52.160Z,0
2017-01-22T05:02:02.497Z,0
2017-01-22T05:03:12.844Z,0
2017-01-22T05:04:23.113Z,0
2017-01-22T05:05:33.101Z,0
2017-01-22T05:06:43.402Z,0
2017-01-22T05:07:53.672Z,0
2017-01-22T05:09:03.951Z,0
2017-01-22T05:10:13.804Z,0
2017-01-22T05:11:24.114Z,0
2017-01-22T05:12:34.016Z,0
2017-01-22T05:13:44.294Z,0
2017-01-22T05:14:54.564Z,0
2017-01-22T05:16:04.892Z,0
2017-01-22T05:17:14.896Z,0
2017-01-22T05:18:25.154Z,0
2017-01-22T05:19:35.401Z,0
2017-01-22T05:20:45.429Z,0
2017-01-22T05:21:55.699Z,0
2017-01-22T05:23:05.950Z,0
2017-01-22T05:24:15.822Z,0
2017-01-22T05:25:26.099Z,0
2017-01-22T05:26:35.577Z,0
2017-01-22T05:27:45.827Z,0
2017-01-22T05:28:56.169Z,0
2017-01-22T05:30:06.511Z,0
2017-01-22T05:31:16.406Z,0
2017-01-22T05:32:26.682Z,0
2017-01-22T05:33:36.927Z,0
2017-01-22T05:34:46.777Z,0
2017-01-22T05:35:57.119Z,0
2017-01-22T05:37:07.449Z,0
2017-01-22T05:38:17.818Z,0
2017-01-22T05:39:28.183Z,0
2017-01-22T05:40:38.520Z,0
2017-01-22T05:41:48.837Z,0
2017-01-22T05:42:59.118Z,0
2017-01-22T05:44:09.384Z,0
2017-01-22T05:45:19.644Z,0
2017-01-22T05:46:29.906Z,0
2017-01-22T05:47:40.246Z,0
2017-01-22T05:48:50.104Z,0
2017-01-22T05:50:00.371Z,0
2017-01-22T05:51:10.708Z,0
2017-01-22T05:52:20.960Z,0
2017-01-22T05:53:30.799Z,0
2017-01-22T05:54:41.082Z,0
2017-01-22T05:55:51.372Z,0
2017-01-22T05:57:01.627Z,0
2017-01-22T05:58:11.561Z,0
2017-01-22T05:59:22.092Z,0
2017-01-22T06:00:32.345Z,0
2017-01-22T06:01:42.238Z,0
2017-01-22T06:02:52.095Z,0
2017-01-22T06:04:01.983Z,0
2017-01-22T06:05:11.854Z,0
2017-01-22T06:06:22.152Z,0
2017-01-22T06:07:32.433Z,0
2017-01-22T06:08:41.911Z,0
2017-01-22T06:09:52.184Z,0
2017-01-22T06:11:02.582Z,0
2017-01-22T06:12:12.853Z,0
2017-01-22T06:13:23.118Z,0
2017-01-22T06:14:33.384Z,0
2017-01-22T06:15:43.659Z,0
2017-01-22T06:16:53.971Z,0
2017-01-22T06:18:04.235Z,0
2017-01-22T06:19:14.511Z,0
2017-01-22T06:20:23.999Z,0
2017-01-22T06:21:34.262Z,0
2017-01-22T06:22:44.704Z,0
2017-01-22T06:23:54.581Z,0
2017-01-22T06:25:04.971Z,0
2017-01-22T06:26:15.252Z,0
2017-01-22T06:27:25.137Z,0
2017-01-22T06:28:35.019Z,0
2017-01-22T06:29:45.301Z,0
2017-01-22T06:30:55.610Z,4
2017-01-22T06:32:05.881Z,0
2017-01-22T06:33:16.189Z,0
2017-01-22T06:34:26.682Z,4
2017-01-22T06:35:36.550Z,4
2017-01-22T06:36:46.626Z,4
2017-01-22T06:37:56.486Z,4
2017-01-22T06:39:06.771Z,4
2017-01-22T06:40:17.041Z,8
2017-01-22T06:41:27.314Z,4
2017-01-22T06:42:37.620Z,8
2017-01-22T06:43:47.871Z,12
2017-01-22T06:44:58.165Z,12
2017-01-22T06:46:08.040Z,16
2017-01-22T06:47:18.306Z,20
2017-01-22T06:48:28.573Z,24
2017-01-22T06:49:38.493Z,28
2017-01-22T06:50:48.355Z,32
2017-01-22T06:51:58.654Z,36
2017-01-22T06:53:08.248Z,44
2017-01-22T06:54:18.522Z,48
2017-01-22T06:55:28.811Z,60
2017-01-22T06:56:38.679Z,68
2017-01-22T06:57:48.560Z,80
2017-01-22T06:58:58.423Z,100
2017-01-22T07:00:08.713Z,104
2017-01-22T07:01:18.296Z,120
2017-01-22T07:02:28.571Z,132
2017-01-22T07:03:38.916Z,140
2017-01-22T07:04:48.779Z,156
2017-01-22T07:05:59.071Z,180
2017-01-22T07:07:08.933Z,184
2017-01-22T07:08:19.267Z,188
2017-01-22T07:09:29.568Z,208
2017-01-22T07:10:39.975Z,228
2017-01-22T07:11:49.824Z,240
2017-01-22T07:13:00.160Z,260
2017-01-22T07:14:10.574Z,284
2017-01-22T07:15:21.007Z,296
2017-01-22T07:16:31.296Z,316
2017-01-22T07:17:41.549Z,356
2017-01-22T07:18:51.855Z,372
2017-01-22T07:20:01.728Z,388
2017-01-22T07:21:11.602Z,416
2017-01-22T07:22:21.527Z,452
2017-01-22T07:23:31.809Z,480
2017-01-22T07:24:42.070Z,496
2017-01-22T07:25:51.568Z,524
2017-01-22T07:27:01.971Z,552
2017-01-22T07:28:12.264Z,588
2017-01-22T07:29:22.599Z,620
2017-01-22T07:30:32.899Z,660
2017-01-22T07:31:43.178Z,676
2017-01-22T07:32:53.478Z,724
2017-01-22T07:34:03.781Z,792
2017-01-22T07:35:14.038Z,812
2017-01-22T07:36:24.300Z,804
2017-01-22T07:37:34.484Z,848
2017-01-22T07:38:44.798Z,876
2017-01-22T07:39:55.074Z,880
2017-01-22T07:41:05.413Z,892
2017-01-22T07:42:15.802Z,932
2017-01-22T07:43:26.116Z,1024
2017-01-22T07:44:35.601Z,1040
2017-01-22T07:45:45.864Z,1072
2017-01-22T07:46:56.145Z,1108
2017-01-22T07:48:06.422Z,1184
2017-01-22T07:49:16.761Z,1300
2017-01-22T07:50:27.009Z,1340
2017-01-22T07:51:37.312Z,1360
2017-01-22T07:52:47.608Z,1408
2017-01-22T07:53:57.880Z,1548
2017-01-22T07:55:07.748Z,1544
2017-01-22T07:56:18.169Z,1584
2017-01-22T07:57:28.511Z,1516
2017-01-22T07:58:38.810Z,1564
2017-01-22T07:59:48.661Z,1592
2017-01-22T08:00:58.511Z,1628
2017-01-22T08:02:07.991Z,1752
2017-01-22T08:03:18.265Z,1800
2017-01-22T08:04:28.539Z,1800
2017-01-22T08:05:38.911Z,1836
2017-01-22T08:06:48.759Z,1968
2017-01-22T08:07:58.751Z,2112
2017-01-22T08:09:09.085Z,2004
2017-01-22T08:10:19.612Z,2024
2017-01-22T08:11:29.499Z,2212
2017-01-22T08:12:39.788Z,2460
2017-01-22T08:13:50.117Z,2540
2017-01-22T08:15:00.398Z,2536
2017-01-22T08:16:10.696Z,2484
2017-01-22T08:17:20.546Z,2564
2017-01-22T08:18:30.431Z,2676
2017-01-22T08:19:39.941Z,2664
2017-01-22T08:20:49.807Z,2736
2017-01-22T08:22:00.135Z,2600
2017-01-22T08:23:10.427Z,2428
2017-01-22T08:24:20.696Z,2632
2017-01-22T08:25:30.973Z,2652
2017-01-22T08:26:41.410Z,2704
2017-01-22T08:27:51.274Z,2896
2017-01-22T08:29:01.587Z,3184
2017-01-22T08:30:11.537Z,3256
2017-01-22T08:31:21.816Z,3644
2017-01-22T08:32:31.673Z,3648
2017-01-22T08:33:41.557Z,3520
2017-01-22T08:34:51.846Z,3404
2017-01-22T08:36:02.104Z,3816
2017-01-22T08:37:12.432Z,3680
2017-01-22T08:38:22.770Z,3532
2017-01-22T08:39:32.710Z,3416
2017-01-22T08:40:42.975Z,3508
2017-01-22T08:41:52.883Z,3928
2017-01-22T08:43:03.184Z,3664
2017-01-22T08:44:13.043Z,4056
2017-01-22T08:45:23.381Z,4072
2017-01-22T08:46:33.652Z,4144
2017-01-22T08:47:43.909Z,3716
2017-01-22T08:48:54.186Z,3840
2017-01-22T08:50:04.486Z,3784
2017-01-22T08:51:14.382Z,3724
2017-01-22T08:52:24.314Z,3516
2017-01-22T08:53:34.256Z,3368
2017-01-22T08:54:44.553Z,3444
2017-01-22T08:55:54.817Z,3896
2017-01-22T08:57:04.681Z,3904
2017-01-22T08:58:14.936Z,3780
2017-01-22T08:59:25.214Z,3988
2017-01-22T09:00:35.103Z,3904
2017-01-22T09:01:45.084Z,4276
2017-01-22T09:02:54.959Z,4512
2017-01-22T09:04:05.273Z,4900
2017-01-22T09:05:15.575Z,4936
2017-01-22T09:06:25.851Z,4836
2017-01-22T09:07:35.790Z,5248
2017-01-22T09:08:46.098Z,5656
2017-01-22T09:09:55.970Z,5052
2017-01-22T09:11:06.184Z,5880
2017-01-22T09:12:16.166Z,5236
2017-01-22T09:13:26.563Z,5072
2017-01-22T09:14:36.459Z,4928
2017-01-22T09:15:46.773Z,4572
2017-01-22T09:16:57.084Z,4836
2017-01-22T09:18:06.974Z,5352
2017-01-22T09:19:16.457Z,5420
2017-01-22T09:20:26.756Z,6108
2017-01-22T09:21:37.039Z,5776
2017-01-22T09:22:47.368Z,5820
2017-01-22T09:23:57.628Z,5920
2017-01-22T09:25:07.504Z,6352
2017-01-22T09:26:17.381Z,6120
2017-01-22T09:27:27.666Z,6228
2017-01-22T09:28:38.034Z,5388
2017-01-22T09:29:48.319Z,5352
2017-01-22T09:30:58.672Z,5224
2017-01-22T09:32:09.117Z,5824
2017-01-22T09:33:19.514Z,5480
2017-01-22T09:34:29.957Z,6288
2017-01-22T09:35:40.281Z,6248
2017-01-22T09:36:50.581Z,6624
2017-01-22T09:38:00.882Z,7440
2017-01-22T09:39:11.188Z,7092
2017-01-22T09:40:21.495Z,7416
2017-01-22T09:41:31.396Z,7816
2017-01-22T09:42:41.701Z,7360
2017-01-22T09:43:51.969Z,8088
2017-01-22T09:45:02.549Z,8448
2017-01-22T09:46:12.077Z,8508
2017-01-22T09:47:22.368Z,8772
2017-01-22T09:48:32.662Z,9656
2017-01-22T09:49:42.574Z,10312
2017-01-22T09:50:51.638Z,9904
2017-01-22T09:52:01.988Z,10436
2017-01-22T09:53:12.261Z,9524
2017-01-22T09:54:22.129Z,11408
2017-01-22T09:55:32.007Z,12820
2017-01-22T09:56:42.284Z,11740
2017-01-22T09:57:52.595Z,10924
2017-01-22T09:59:03.104Z,12304
2017-01-22T10:00:13.024Z,10944
2017-01-22T10:01:22.911Z,10932
2017-01-22T10:02:33.253Z,12064
2017-01-22T10:03:43.628Z,11668
2017-01-22T10:04:53.109Z,10576
2017-01-22T10:06:02.984Z,13716
2017-01-22T10:07:13.277Z,15648
2017-01-22T10:08:22.792Z,16672
2017-01-22T10:09:32.659Z,17920
2017-01-22T10:10:42.935Z,20512
2017-01-22T10:11:53.234Z,17024
2017-01-22T10:13:03.542Z,15380
2017-01-22T10:14:13.984Z,13452
2017-01-22T10:15:23.461Z,14212
2017-01-22T10:16:33.788Z,13976
2017-01-22T10:17:44.121Z,14808
2017-01-22T10:18:54.409Z,16192
2017-01-22T10:20:04.761Z,14952
2017-01-22T10:21:14.672Z,15968
2017-01-22T10:22:24.546Z,21152
2017-01-22T10:23:34.850Z,20672
2017-01-22T10:24:45.165Z,25408
2017-01-22T10:25:55.042Z,26016
2017-01-22T10:27:05.345Z,35424
2017-01-22T10:28:15.291Z,27136
2017-01-22T10:29:25.175Z,29024
2017-01-22T10:30:35.083Z,30848
2017-01-22T10:31:45.376Z,39328
2017-01-22T10:32:55.673Z,42816
2017-01-22T10:34:06.013Z,39968
2017-01-22T10:35:16.296Z,47040
2017-01-22T10:36:26.602Z,39616
2017-01-22T10:37:36.933Z,37984
2017-01-22T10:38:47.254Z,45056
2017-01-22T10:39:57.219Z,42464
2017-01-22T10:41:07.150Z,39936
2017-01-22T10:42:17.074Z,42240
2017-01-22T10:43:27.466Z,35904
2017-01-22T10:44:37.774Z,39552
2017-01-22T10:45:47.670Z,37184
2017-01-22T10:46:57.958Z,37280
2017-01-22T10:48:08.273Z,42944
2017-01-22T10:49:18.592Z,41024
2017-01-22T10:50:28.896Z,44672
2017-01-22T10:51:38.428Z,47936
2017-01-22T10:52:48.790Z,41088
2017-01-22T10:53:58.810Z,41888
2017-01-22T10:55:09.167Z,41056
2017-01-22T10:56:19.471Z,39456
2017-01-22T10:57:29.894Z,41984
2017-01-22T10:58:40.190Z,29184
2017-01-22T10:59:50.581Z,33920
2017-01-22T11:01:00.466Z,44768
2017-01-22T11:02:10.537Z,24224
2017-01-22T11:03:20.552Z,32576
2017-01-22T11:04:30.879Z,24768
2017-01-22T11:05:40.048Z,18976
2017-01-22T11:06:50.340Z,18112
2017-01-22T11:08:00.628Z,32064
2017-01-22T11:09:10.921Z,18848
2017-01-22T11:10:21.216Z,14940
2017-01-22T11:11:31.505Z,19648
2017-01-22T11:12:41.856Z,15308
2017-01-22T11:13:52.215Z,18272
2017-01-22T11:15:02.608Z,20736
2017-01-22T11:16:12.987Z,17696
2017-01-22T11:17:23.404Z,15332
2017-01-22T11:18:33.909Z,17728
2017-01-22T11:19:44.285Z,16432
2017-01-22T11:20:54.715Z,21856
2017-01-22T11:22:05.042Z,37184
2017-01-22T11:23:14.931Z,22816
2017-01-22T11:24:24.855Z,30080
2017-01-22T11:25:34.334Z,35840
2017-01-22T11:26:44.293Z,37664
2017-01-22T11:27:54.587Z,40992
2017-01-22T11:29:04.488Z,22944
2017-01-22T11:30:14.128Z,35904
2017-01-22T11:31:23.650Z,35648
2017-01-22T11:32:33.981Z,44960
2017-01-22T11:33:43.871Z,22784
2017-01-22T11:34:54.151Z,40928
2017-01-22T11:36:04.147Z,39488
2017-01-22T11:37:14.455Z,24096
2017-01-22T11:38:24.771Z,42720
2017-01-22T11:39:35.064Z,43712
2017-01-22T11:40:44.987Z,41056
2017-01-22T11:41:55.303Z,39072
2017-01-22T11:43:05.268Z,23968
2017-01-22T11:44:15.180Z,38848
2017-01-22T11:45:25.480Z,23168
2017-01-22T11:46:35.818Z,29280
2017-01-22T11:47:46.114Z,14988
2017-01-22T11:48:56.392Z,22688
2017-01-22T11:50:06.698Z,41728
2017-01-22T11:51:17.035Z,32896
2017-01-22T11:52:27.347Z,20800
2017-01-22T11:53:37.678Z,36160
2017-01-22T11:54:48.094Z,17120
2017-01-22T11:55:58.508Z,15044
2017-01-22T11:57:08.124Z,15736
2017-01-22T11:58:18.609Z,37440
2017-01-22T11:59:28.567Z,28480
2017-01-22T12:00:38.889Z,38944
2017-01-22T12:01:48.401Z,32960
2017-01-22T12:02:58.378Z,30112
2017-01-22T12:04:07.865Z,26080
2017-01-22T12:05:17.394Z,28032
2017-01-22T12:06:27.289Z,32992
2017-01-22T12:07:37.184Z,39808
2017-01-22T12:08:47.134Z,43168
2017-01-22T12:09:57.035Z,41088
2017-01-22T12:11:06.554Z,39712
2017-01-22T12:12:16.502Z,43840
2017-01-22T12:13:26.402Z,45472
2017-01-22T12:14:36.447Z,44064
2017-01-22T12:15:46.407Z,33568
2017-01-22T12:16:56.791Z,37280
2017-01-22T12:18:07.133Z,40576
2017-01-22T12:19:17.043Z,35936
2017-01-22T12:20:27.409Z,36800
2017-01-22T12:21:37.771Z,37728
2017-01-22T12:22:47.696Z,40736
2017-01-22T12:23:57.587Z,41632
2017-01-22T12:25:08.026Z,35520
2017-01-22T12:26:18.100Z,33664
2017-01-22T12:27:28.032Z,42016
2017-01-22T12:28:37.978Z,36288
2017-01-22T12:29:47.537Z,35520
2017-01-22T12:30:57.885Z,37888
2017-01-22T12:32:07.812Z,42496
2017-01-22T12:33:17.795Z,38496
2017-01-22T12:34:28.180Z,35008
2017-01-22T12:35:38.720Z,33536
2017-01-22T12:36:49.053Z,37024
2017-01-22T12:37:59.048Z,36192
2017-01-22T12:39:09.415Z,31616
2017-01-22T12:40:19.870Z,19392
2017-01-22T12:41:30.168Z,36096
2017-01-22T12:42:40.086Z,31424
2017-01-22T12:43:50.449Z,31648
2017-01-22T12:45:00.484Z,34848
2017-01-22T12:46:10.385Z,34976
2017-01-22T12:47:20.703Z,33024
2017-01-22T12:48:31.010Z,26848
2017-01-22T12:49:41.432Z,15600
2017-01-22T12:50:51.347Z,12936
2017-01-22T12:52:01.294Z,12312
2017-01-22T12:53:11.193Z,11984
2017-01-22T12:54:21.071Z,11856
2017-01-22T12:55:31.521Z,12052
2017-01-22T12:56:41.829Z,12672
2017-01-22T12:57:51.714Z,12756
2017-01-22T12:59:02.050Z,12848
2017-01-22T13:00:11.781Z,12608
2017-01-22T13:01:21.705Z,12524
2017-01-22T13:02:31.607Z,12440
2017-01-22T13:03:41.996Z,12176
2017-01-22T13:04:53.285Z,11892
2017-01-22T13:06:03.617Z,11572
2017-01-22T13:07:14.934Z,11368
2017-01-22T13:08:25.412Z,11396
2017-01-22T13:09:36.315Z,11216
2017-01-22T13:10:45.889Z,11272
2017-01-22T13:11:56.217Z,10940
2017-01-22T13:13:06.128Z,10980
2017-01-22T13:14:15.650Z,10884
2017-01-22T13:15:25.994Z,10868
2017-01-22T13:16:36.282Z,10684
2017-01-22T13:17:46.578Z,10320
2017-01-22T13:18:56.506Z,10420
2017-01-22T13:20:06.849Z,10296
2017-01-22T13:21:17.150Z,10040
2017-01-22T13:22:27.083Z,9972
2017-01-22T13:23:36.961Z,9852
2017-01-22T13:24:47.332Z,9660
2017-01-22T13:25:57.678Z,9464
2017-01-22T13:27:07.594Z,9244
2017-01-22T13:28:17.878Z,9152
2017-01-22T13:29:28.312Z,9152
2017-01-22T13:30:38.645Z,9064
2017-01-22T13:31:49.693Z,8984
2017-01-22T13:33:00.883Z,8924
2017-01-22T13:34:10.812Z,8812
2017-01-22T13:35:20.706Z,8756
2017-01-22T13:36:30.981Z,8744
2017-01-22T13:37:40.918Z,8744
2017-01-22T13:38:51.197Z,8712
2017-01-22T13:40:01.594Z,8664
2017-01-22T13:41:11.509Z,8552
2017-01-22T13:42:21.627Z,8440
2017-01-22T13:43:31.180Z,8364
2017-01-22T13:44:41.588Z,8268
2017-01-22T13:45:52.011Z,8148
2017-01-22T13:47:02.362Z,7988
2017-01-22T13:48:12.845Z,7852
2017-01-22T13:49:23.210Z,7756
2017-01-22T13:50:33.535Z,7596
2017-01-22T13:51:43.820Z,7504
2017-01-22T13:52:54.212Z,7472
2017-01-22T13:54:04.594Z,7408
2017-01-22T13:55:14.898Z,7368
2017-01-22T13:56:24.877Z,7316
2017-01-22T13:57:34.375Z,7292
2017-01-22T13:58:43.874Z,7268
2017-01-22T13:59:55.081Z,7200
2017-01-22T14:01:06.192Z,7060
2017-01-22T14:02:15.689Z,6964
2017-01-22T14:03:26.080Z,6832
2017-01-22T14:04:36.415Z,6728
2017-01-22T14:05:46.714Z,6676
2017-01-22T14:06:57.023Z,6632
2017-01-22T14:08:06.982Z,6604
2017-01-22T14:09:17.303Z,6548
2017-01-22T14:10:27.661Z,6464
2017-01-22T14:11:37.541Z,6340
2017-01-22T14:12:47.973Z,6292
2017-01-22T14:13:57.507Z,6176
2017-01-22T14:15:07.841Z,6116
2017-01-22T14:16:18.152Z,6028
2017-01-22T14:17:28.239Z,5936
2017-01-22T14:18:38.149Z,5836
2017-01-22T14:19:48.459Z,5784
2017-01-22T14:20:58.902Z,5684
2017-01-22T14:22:08.884Z,5616
2017-01-22T14:23:19.177Z,5588
2017-01-22T14:24:29.505Z,5496
2017-01-22T14:25:39.860Z,5440
2017-01-22T14:26:49.782Z,5376
2017-01-22T14:28:00.385Z,5304
2017-01-22T14:29:10.845Z,5276
2017-01-22T14:30:21.262Z,5196
2017-01-22T14:31:31.551Z,5156
2017-01-22T14:32:41.461Z,5076
2017-01-22T14:33:51.798Z,5052
2017-01-22T14:35:02.705Z,5008
2017-01-22T14:36:12.992Z,4952
2017-01-22T14:37:23.326Z,4900
2017-01-22T14:38:33.213Z,4840
2017-01-22T14:39:43.528Z,4752
2017-01-22T14:40:53.817Z,4652
2017-01-22T14:42:04.219Z,4572
2017-01-22T14:43:14.133Z,4496
2017-01-22T14:44:24.409Z,4400
2017-01-22T14:45:34.317Z,4308
2017-01-22T14:46:44.608Z,4212
2017-01-22T14:47:55.076Z,4112
2017-01-22T14:49:05.352Z,4016
2017-01-22T14:50:15.718Z,3912
2017-01-22T14:51:26.060Z,3800
2017-01-22T14:52:36.359Z,3684
2017-01-22T14:53:46.353Z,3588
2017-01-22T14:54:56.375Z,3496
2017-01-22T14:56:05.880Z,3400
2017-01-22T14:57:15.904Z,3300
2017-01-22T14:58:26.248Z,3192
2017-01-22T14:59:35.791Z,3092
2017-01-22T15:00:45.845Z,3004
2017-01-22T15:01:56.194Z,2896
2017-01-22T15:03:05.740Z,2796
2017-01-22T15:04:15.748Z,2696
2017-01-22T15:05:26.056Z,2592
2017-01-22T15:06:36.414Z,2480
2017-01-22T15:07:46.330Z,2372
2017-01-22T15:08:56.774Z,2264
2017-01-22T15:10:06.686Z,2164
2017-01-22T15:11:16.620Z,2080
2017-01-22T15:12:27.096Z,1992
2017-01-22T15:13:37.444Z,1904
2017-01-22T15:14:47.826Z,1816
2017-01-22T15:15:58.115Z,1724
2017-01-22T15:17:07.596Z,1640
2017-01-22T15:18:17.087Z,1556
2017-01-22T15:19:27.479Z,1472
2017-01-22T15:20:37.881Z,1396
2017-01-22T15:21:47.828Z,1320
2017-01-22T15:22:57.415Z,1248
2017-01-22T15:24:07.315Z,1176
2017-01-22T15:25:17.285Z,1108
2017-01-22T15:26:27.197Z,1048
2017-01-22T15:27:37.542Z,984
2017-01-22T15:28:47.552Z,924
2017-01-22T15:29:57.910Z,868
2017-01-22T15:31:08.249Z,816
2017-01-22T15:32:18.294Z,760
2017-01-22T15:33:28.560Z,716
2017-01-22T15:34:38.528Z,664
2017-01-22T15:35:48.967Z,616
2017-01-22T15:36:59.120Z,576
2017-01-22T15:38:09.038Z,532
2017-01-22T15:39:19.367Z,492
2017-01-22T15:40:29.019Z,456
2017-01-22T15:41:38.924Z,416
2017-01-22T15:42:49.243Z,380
2017-01-22T15:43:59.539Z,352
2017-01-22T15:45:09.581Z,320
2017-01-22T15:46:19.949Z,288
2017-01-22T15:47:30.312Z,260
2017-01-22T15:48:41.293Z,232
2017-01-22T15:49:51.665Z,212
2017-01-22T15:51:01.976Z,192
2017-01-22T15:52:12.367Z,168
2017-01-22T15:53:22.562Z,152
2017-01-22T15:54:32.879Z,132
2017-01-22T15:55:43.319Z,112
2017-01-22T15:56:53.615Z,100
2017-01-22T15:58:03.940Z,88
2017-01-22T15:59:14.223Z,76
2017-01-22T16:00:24.585Z,64
2017-01-22T16:01:34.489Z,52
2017-01-22T16:02:44.809Z,40
2017-01-22T16:03:55.112Z,36
2017-01-22T16:05:04.775Z,24
2017-01-22T16:06:15.074Z,20
2017-01-22T16:07:25.395Z,16
2017-01-22T16:08:35.673Z,12
2017-01-22T16:09:46.051Z,12
2017-01-22T16:10:56.353Z,8